Time;durP1;ratioP1;P1;durP2;ratioP2;P2;SDS_P1;SDS_P2;PMS_P1;PMS_P2;Temp;Humidity;BMP_temperature;BMP_pressure;BME280_temperature;BME280_humidity;BME280_pressure;Samples;Min_cycle;Max_cycle;Signal;HPM_P1;HPM_P2
2022/06/29 00:00:18;;;;;;;6.40;4.18;;;;;;;27.51;60.86;100612.72;5034428;28;20052;-75
2022/06/29 00:02:47;;;;;;;10.52;4.57;;;;;;;27.51;60.32;100610.84;5034508;28;20057;-75
2022/06/29 00:05:18;;;;;;;10.20;5.13;;;;;;;27.52;60.44;100615.25;5035887;28;20052;-75
2022/06/29 00:07:46;;;;;;;10.93;4.88;;;;;;;27.52;60.29;100608.97;5034064;28;20091;-75
2022/06/29 00:10:14;;;;;;;8.70;4.25;;;;;;;27.51;60.25;100610.84;5036056;28;20052;-75
2022/06/29 00:12:43;;;;;;;9.60;4.18;;;;;;;27.54;60.32;100612.31;5034129;28;20046;-75
2022/06/29 00:15:12;;;;;;;9.30;4.57;;;;;;;27.53;59.92;100614.19;5034017;28;20053;-75
2022/06/29 00:17:39;;;;;;;9.50;3.97;;;;;;;27.52;60.22;100612.53;5035772;28;20041;-75
2022/06/29 00:20:12;;;;;;;6.82;3.83;;;;;;;27.54;60.04;100615.88;5034986;28;20448;-75
2022/06/29 00:22:41;;;;;;;11.15;4.95;;;;;;;27.53;59.90;100619.63;5035450;28;20042;-75
2022/06/29 00:25:10;;;;;;;8.68;4.22;;;;;;;27.54;59.50;100624.03;5034947;28;20061;-75
2022/06/29 00:27:38;;;;;;;7.50;4.00;;;;;;;27.55;59.47;100628.47;5034825;28;20049;-75
2022/06/29 00:30:07;;;;;;;8.43;4.20;;;;;;;27.56;59.65;100627.41;5035336;28;20041;-75
2022/06/29 00:32:34;;;;;;;7.10;3.85;;;;;;;27.56;59.64;100630.13;5034128;28;20050;-75
2022/06/29 00:35:02;;;;;;;7.68;3.97;;;;;;;27.56;59.32;100626.59;5034956;28;20064;-75
2022/06/29 00:37:29;;;;;;;8.10;4.88;;;;;;;27.56;59.61;100618.44;5035160;28;20042;-76
2022/06/29 00:39:57;;;;;;;7.57;4.13;;;;;;;27.56;59.16;100632.03;5035542;28;20072;-75
2022/06/29 00:42:24;;;;;;;9.88;4.50;;;;;;;27.56;59.43;100630.13;5035252;28;20495;-75
2022/06/29 00:44:51;;;;;;;7.35;3.67;;;;;;;27.56;59.45;100627.41;5034192;28;20049;-75
2022/06/29 00:47:19;;;;;;;7.03;3.67;;;;;;;27.56;59.36;100626.59;5034486;28;20052;-75
2022/06/29 00:49:47;;;;;;;6.78;4.25;;;;;;;27.57;58.78;100631.81;5032995;28;20057;-75
2022/06/29 00:52:16;;;;;;;9.02;3.72;;;;;;;27.57;58.92;100630.97;5035136;28;20057;-75
2022/06/29 00:54:46;;;;;;;9.98;4.65;;;;;;;27.56;59.03;100635.59;5035016;28;20046;-75
2022/06/29 00:57:19;;;;;;;6.82;3.70;;;;;;;27.57;58.78;100637.25;5035224;28;20053;-75
2022/06/29 00:59:49;;;;;;;5.53;3.78;;;;;;;27.57;59.05;100639.13;5034376;28;20049;-75
2022/06/29 01:02:19;;;;;;;9.15;4.20;;;;;;;27.57;59.05;100648.13;5034811;28;20107;-75
2022/06/29 01:04:47;;;;;;;10.00;3.60;;;;;;;27.56;59.00;100638.28;5034693;28;20065;-75
2022/06/29 01:07:18;;;;;;;10.70;4.40;;;;;;;27.58;58.84;100640.81;5034294;28;20049;-75
2022/06/29 01:09:46;;;;;;;11.27;4.43;;;;;;;27.59;58.92;100637.09;5034916;28;20057;-75
2022/06/29 01:12:14;;;;;;;8.75;3.63;;;;;;;27.58;58.72;100628.06;5034376;28;20061;-75
2022/06/29 01:14:44;;;;;;;8.70;3.97;;;;;;;27.58;58.86;100619.91;5033039;28;20056;-75
2022/06/29 01:17:11;;;;;;;7.40;4.22;;;;;;;27.58;58.33;100614.47;5034574;28;20477;-76
2022/06/29 01:19:40;;;;;;;8.20;4.22;;;;;;;27.59;58.43;100612.63;5033999;28;20049;-75
2022/06/29 01:22:12;;;;;;;11.75;4.32;;;;;;;27.58;58.71;100611.75;5033845;28;20076;-75
2022/06/29 01:24:41;;;;;;;7.07;3.78;;;;;;;27.58;58.32;100611.75;5034228;28;20046;-75
2022/06/29 01:27:08;;;;;;;5.63;3.47;;;;;;;27.59;58.56;100612.63;5016329;28;20060;-75
2022/06/29 01:29:36;;;;;;;10.80;3.95;;;;;;;27.58;58.62;100614.47;5032480;28;20045;-76
2022/06/29 01:32:04;;;;;;;6.88;3.78;;;;;;;27.58;58.67;100611.75;5034454;28;20048;-75
2022/06/29 01:34:34;;;;;;;10.23;4.10;;;;;;;27.59;58.44;100605.28;5033024;28;20037;-75
2022/06/29 01:37:03;;;;;;;7.35;3.78;;;;;;;27.58;58.17;100609.03;5034257;28;20049;-76
2022/06/29 01:39:32;;;;;;;7.97;4.38;;;;;;;27.58;58.04;100614.47;5034283;28;20041;-75
2022/06/29 01:41:59;;;;;;;7.65;3.78;;;;;;;27.59;58.56;100612.63;5033524;28;20049;-75
2022/06/29 01:44:27;;;;;;;8.00;3.80;;;;;;;27.59;58.31;100621.59;5034006;28;20052;-75
2022/06/29 01:46:55;;;;;;;6.95;3.45;;;;;;;27.59;58.46;100618.88;5033977;28;20068;-75
2022/06/29 01:49:23;;;;;;;9.98;4.30;;;;;;;27.60;58.43;100620.56;5033259;28;20049;-75
2022/06/29 01:51:50;;;;;;;6.72;3.63;;;;;;;27.60;58.36;100619.72;5032337;28;20056;-75
2022/06/29 01:54:18;;;;;;;7.22;3.85;;;;;;;27.59;58.33;100613.44;5033330;28;20053;-75
2022/06/29 01:56:45;;;;;;;7.78;4.38;;;;;;;27.60;58.49;100622.44;5033883;28;20125;-75
2022/06/29 01:59:13;;;;;;;7.60;3.65;;;;;;;27.60;58.27;100609.69;5033392;28;20037;-75
2022/06/29 02:01:40;;;;;;;6.55;3.55;;;;;;;27.60;57.96;100604.25;5033621;28;20045;-75
2022/06/29 02:04:07;;;;;;;9.23;3.97;;;;;;;27.59;58.19;100605.28;5032662;28;20119;-75
2022/06/29 02:06:35;;;;;;;7.50;3.67;;;;;;;27.59;58.19;100602.56;5033454;28;20392;-75
2022/06/29 02:09:02;;;;;;;9.27;4.13;;;;;;;27.60;58.10;100603.41;5033615;28;20384;-75
2022/06/29 02:11:30;;;;;;;10.50;4.47;;;;;;;27.61;57.82;100602.38;5033103;28;20053;-75
2022/06/29 02:13:57;;;;;;;8.27;3.97;;;;;;;27.60;58.11;100603.41;5033658;28;20046;-75
2022/06/29 02:16:24;;;;;;;10.00;3.67;;;;;;;27.60;58.02;100596.09;5031858;28;20056;-75
2022/06/29 02:18:52;;;;;;;7.53;4.10;;;;;;;27.60;57.98;100590.66;5033613;28;20038;-75
2022/06/29 02:21:19;;;;;;;10.18;3.85;;;;;;;27.60;57.59;100585.22;5033126;28;20049;-75
2022/06/29 02:23:48;;;;;;;8.57;4.10;;;;;;;27.60;57.73;100582.50;5033299;28;20046;-75
2022/06/29 02:26:15;;;;;;;6.75;3.50;;;;;;;27.61;57.78;100594.22;5033284;28;20400;-75
2022/06/29 02:28:43;;;;;;;8.60;3.97;;;;;;;27.61;57.72;100591.50;5033386;28;20044;-76
2022/06/29 02:36:42;;;;;;;6.32;3.80;;;;;;;27.61;58.10;100588.78;5033434;28;20362;-76
2022/06/29 02:39:10;;;;;;;5.43;3.38;;;;;;;27.61;57.89;100596.94;5032796;28;20041;-83
2022/06/29 02:41:37;;;;;;;6.97;3.42;;;;;;;27.61;58.23;100584.16;5033411;28;20049;-76
2022/06/29 02:44:04;;;;;;;7.07;3.20;;;;;;;27.62;58.04;100585.00;5033084;28;20076;-76
2022/06/29 02:46:32;;;;;;;7.75;3.88;;;;;;;27.63;58.19;100588.56;5034378;28;20057;-76
2022/06/29 02:49:00;;;;;;;7.78;3.22;;;;;;;27.63;58.18;100583.13;5036726;28;20056;-75
2022/06/29 02:51:27;;;;;;;6.35;3.28;;;;;;;27.61;58.09;100578.72;5036146;28;20045;-76
2022/06/29 02:53:55;;;;;;;9.52;4.22;;;;;;;27.60;57.97;100585.22;5036471;28;20393;-75
2022/06/29 02:56:22;;;;;;;8.20;4.25;;;;;;;27.60;57.70;100578.94;5037113;28;20393;-76
2022/06/29 02:58:50;;;;;;;8.23;4.05;;;;;;;27.58;57.65;100578.28;5037219;28;20042;-76
2022/06/29 03:01:17;;;;;;;9.30;3.88;;;;;;;27.57;57.86;100577.44;5036663;28;20060;-76
2022/06/29 03:03:45;;;;;;;6.88;4.15;;;;;;;27.56;58.22;100570.31;5035979;28;20041;-76
2022/06/29 03:06:12;;;;;;;6.70;4.30;;;;;;;27.55;57.61;100568.63;5036590;28;20045;-77
2022/06/29 03:08:40;;;;;;;7.07;4.07;;;;;;;27.53;57.43;100567.97;5036683;28;20041;-77
2022/06/29 03:11:07;;;;;;;7.00;4.28;;;;;;;27.53;57.41;100559.81;5036468;28;20045;-77
2022/06/29 03:13:34;;;;;;;10.30;4.53;;;;;;;27.52;57.28;100569.03;5036425;28;20052;-77
2022/06/29 03:16:02;;;;;;;8.05;4.22;;;;;;;27.52;57.63;100568.19;5036215;28;20412;-77
2022/06/29 03:18:29;;;;;;;6.70;3.80;;;;;;;27.50;57.28;100568.34;5036733;28;20037;-76
2022/06/29 03:20:57;;;;;;;7.50;4.00;;;;;;;27.51;57.49;100564.63;5018943;28;20099;-75
2022/06/29 03:23:24;;;;;;;10.35;4.65;;;;;;;27.51;57.46;100566.50;5036635;28;20057;-76
2022/06/29 03:25:51;;;;;;;8.93;3.67;;;;;;;27.50;57.56;100562.06;5036155;28;20066;-76
2022/06/29 03:28:19;;;;;;;7.35;4.50;;;;;;;27.49;57.99;100557.69;5035995;28;20038;-76
2022/06/29 03:30:46;;;;;;;11.20;4.18;;;;;;;27.48;57.92;100565.00;5036095;28;20076;-77
2022/06/29 03:33:13;;;;;;;11.05;4.38;;;;;;;27.48;57.22;100564.16;5035030;28;20402;-77
2022/06/29 03:35:41;;;;;;;8.80;4.10;;;;;;;27.47;57.35;100563.31;5036409;28;20041;-77
2022/06/29 03:38:08;;;;;;;6.90;4.05;;;;;;;27.47;57.77;100555.16;5034852;28;20049;-76
2022/06/29 03:40:35;;;;;;;8.75;3.72;;;;;;;27.47;57.44;100549.72;5034450;28;20053;-76
2022/06/29 03:43:03;;;;;;;9.88;4.00;;;;;;;27.47;57.42;100549.72;5036165;28;20046;-76
2022/06/29 03:45:30;;;;;;;5.60;3.47;;;;;;;27.47;57.33;100548.88;5036277;28;20056;-76
2022/06/29 03:47:58;;;;;;;11.38;4.45;;;;;;;27.47;57.23;100543.44;5035967;28;20049;-76
2022/06/29 03:50:26;;;;;;;8.43;4.30;;;;;;;27.46;56.87;100549.91;5036293;28;20068;-76
2022/06/29 03:52:53;;;;;;;7.90;3.88;;;;;;;27.46;56.92;100556.19;5036334;28;20050;-76
2022/06/29 03:55:20;;;;;;;7.88;4.32;;;;;;;27.46;57.24;100552.63;5036067;28;20384;-76
2022/06/29 03:57:48;;;;;;;8.20;5.28;;;;;;;27.45;56.88;100545.50;5033984;28;20057;-77
2022/06/29 04:00:16;;;;;;;8.02;4.63;;;;;;;27.45;56.93;100548.22;5035491;28;20404;-77
2022/06/29 04:02:43;;;;;;;8.82;4.53;;;;;;;27.45;57.31;100548.22;5035939;28;20045;-78
2022/06/29 04:05:11;;;;;;;9.65;5.22;;;;;;;27.44;57.16;100541.94;5035438;28;20048;-77
2022/06/29 04:07:38;;;;;;;9.82;5.22;;;;;;;27.43;57.08;100556.59;5036003;28;20489;-77
2022/06/29 04:10:06;;;;;;;8.13;4.72;;;;;;;27.44;57.07;100544.66;5035356;28;20041;-77
2022/06/29 04:12:35;;;;;;;10.52;5.30;;;;;;;27.44;56.98;100552.81;5035262;28;20046;-76
2022/06/29 04:15:04;;;;;;;13.65;5.60;;;;;;;27.43;56.96;100548.44;5035400;28;20057;-77
2022/06/29 04:17:32;;;;;;;11.90;5.22;;;;;;;27.42;57.10;100552.16;5035193;28;20476;-76
2022/06/29 04:20:01;;;;;;;12.10;4.88;;;;;;;27.42;56.97;100544.00;5036010;28;20045;-76
2022/06/29 04:22:28;;;;;;;9.73;5.13;;;;;;;27.43;56.87;100550.28;5033926;28;20049;-76
2022/06/29 04:24:56;;;;;;;12.30;4.78;;;;;;;27.43;57.09;100553.88;5035231;28;20045;-76
2022/06/29 04:27:23;;;;;;;9.95;4.32;;;;;;;27.43;56.88;100553.88;5034885;28;20050;-78
2022/06/29 04:29:50;;;;;;;10.63;4.03;;;;;;;27.42;56.99;100551.31;5034868;28;20044;-77
2022/06/29 04:32:18;;;;;;;10.93;5.07;;;;;;;27.42;56.95;100563.03;5035421;28;20045;-77
2022/06/29 04:34:45;;;;;;;7.85;4.45;;;;;;;27.40;57.15;100559.69;5035582;28;20045;-77
2022/06/29 04:37:12;;;;;;;8.45;4.03;;;;;;;27.41;56.86;100568.66;5035084;28;20045;-77
2022/06/29 04:39:40;;;;;;;6.40;3.47;;;;;;;27.40;56.84;100570.56;5035559;28;20045;-77
2022/06/29 04:42:07;;;;;;;10.02;5.05;;;;;;;27.40;56.87;100573.28;5034843;28;20511;-77
2022/06/29 04:44:40;;;;;;;10.40;4.75;;;;;;;27.40;57.28;100567.84;5035142;28;20057;-77
2022/06/29 04:47:07;;;;;;;5.68;3.58;;;;;;;27.40;57.36;100569.72;5033921;28;20477;-77
2022/06/29 04:49:35;;;;;;;10.45;4.43;;;;;;;27.41;57.67;100572.22;5035008;28;20038;-77
2022/06/29 04:52:02;;;;;;;7.18;4.05;;;;;;;27.41;57.57;100580.38;5034589;28;20045;-78
2022/06/29 04:54:29;;;;;;;7.43;3.97;;;;;;;27.42;57.33;100586.66;5035435;28;20076;-76
2022/06/29 04:56:57;;;;;;;6.68;3.70;;;;;;;27.41;57.42;100579.56;5034683;28;20053;-76
2022/06/29 04:59:25;;;;;;;6.35;4.03;;;;;;;27.41;57.51;100587.72;5034855;28;20045;-76
2022/06/29 05:01:55;;;;;;;8.85;4.65;;;;;;;27.40;57.51;100586.88;5034914;28;20049;-76
2022/06/29 05:04:23;;;;;;;8.15;4.28;;;;;;;27.42;57.51;100595.66;5034345;28;20052;-76
2022/06/29 05:06:50;;;;;;;9.18;3.95;;;;;;;27.41;57.41;100596.69;5034664;28;20045;-76
2022/06/29 05:09:18;;;;;;;9.55;4.10;;;;;;;27.41;57.29;100593.13;5032298;28;20385;-76
2022/06/29 05:11:46;;;;;;;6.43;3.80;;;;;;;27.42;57.37;100595.66;5034181;28;20049;-77
2022/06/29 05:14:15;;;;;;;8.68;3.95;;;;;;;27.43;57.73;100591.94;5034471;28;20053;-76
2022/06/29 05:16:42;;;;;;;9.23;4.60;;;;;;;27.43;57.18;100600.09;5032909;28;20045;-77
2022/06/29 05:19:10;;;;;;;8.00;4.00;;;;;;;27.42;57.20;100586.66;5033859;28;20052;-76
2022/06/29 05:21:37;;;;;;;10.18;4.72;;;;;;;27.42;57.36;100595.66;5033994;28;20049;-77
2022/06/29 05:24:05;;;;;;;7.28;4.30;;;;;;;27.42;57.08;100590.22;5032611;28;20054;-77
2022/06/29 05:26:37;;;;;;;6.15;3.83;;;;;;;27.43;57.52;100604.66;5033789;28;20046;-77
2022/06/29 05:29:05;;;;;;;9.25;4.40;;;;;;;27.43;57.44;100593.78;5032418;28;20048;-77
2022/06/29 05:31:32;;;;;;;8.23;4.15;;;;;;;27.43;57.09;100591.94;5034495;28;20049;-76
2022/06/29 05:34:00;;;;;;;9.68;4.18;;;;;;;27.43;57.52;100597.38;5032750;28;20060;-76
2022/06/29 05:36:27;;;;;;;6.28;4.13;;;;;;;27.43;57.68;100599.22;5033630;28;20068;-77
2022/06/29 05:38:55;;;;;;;7.53;4.53;;;;;;;27.44;57.40;100598.19;5033369;28;20062;-77
2022/06/29 05:41:22;;;;;;;7.55;3.88;;;;;;;27.44;57.67;100595.50;5033420;28;20489;-77
2022/06/29 05:43:51;;;;;;;8.40;3.80;;;;;;;27.44;57.59;100601.75;5032925;28;20056;-77
2022/06/29 05:46:22;;;;;;;9.35;4.20;;;;;;;27.44;57.38;100601.75;5033548;28;20057;-77
2022/06/29 05:48:50;;;;;;;8.75;4.47;;;;;;;27.45;57.61;100597.16;5034442;28;20060;-77
2022/06/29 05:51:17;;;;;;;8.00;4.45;;;;;;;27.44;57.42;100599.03;5032358;28;20041;-77
2022/06/29 05:53:44;;;;;;;8.43;4.07;;;;;;;27.43;57.49;100597.38;5033714;28;20050;-77
2022/06/29 05:56:12;;;;;;;9.50;5.07;;;;;;;27.44;57.14;100600.91;5033869;28;20056;-76
2022/06/29 05:58:39;;;;;;;10.65;4.38;;;;;;;27.43;57.27;100604.66;5032932;28;20068;-76
2022/06/29 06:01:09;;;;;;;7.13;4.38;;;;;;;27.43;57.27;100607.38;5034109;28;20064;-77
2022/06/29 06:03:37;;;;;;;7.53;4.10;;;;;;;27.43;57.12;100602.81;5032389;28;20041;-77
2022/06/29 06:06:04;;;;;;;8.27;4.50;;;;;;;27.42;57.34;100594.81;5033636;28;20045;-78
2022/06/29 06:08:32;;;;;;;8.18;4.32;;;;;;;27.43;57.13;100600.09;5032147;28;20068;-77
2022/06/29 06:10:59;;;;;;;10.13;4.72;;;;;;;27.43;57.37;100596.50;5031848;28;20057;-77
2022/06/29 06:13:27;;;;;;;9.77;5.18;;;;;;;27.43;57.09;100607.38;5032877;28;20037;-78
2022/06/29 06:15:54;;;;;;;10.18;3.90;;;;;;;27.43;57.13;100602.81;5033906;28;20052;-77
2022/06/29 06:18:21;;;;;;;9.43;4.38;;;;;;;27.41;57.04;100599.41;5033439;28;20065;-76
2022/06/29 06:20:49;;;;;;;11.85;4.85;;;;;;;27.41;57.65;100598.56;5032937;28;20045;-77
2022/06/29 06:23:16;;;;;;;10.52;4.75;;;;;;;27.42;57.59;100595.66;5033571;28;20069;-77
2022/06/29 06:25:44;;;;;;;8.90;4.00;;;;;;;27.43;57.70;100596.50;5032897;28;20045;-77
2022/06/29 06:28:11;;;;;;;10.82;4.82;;;;;;;27.43;57.91;100602.81;5033506;28;20053;-77
2022/06/29 06:30:38;;;;;;;7.90;4.50;;;;;;;27.41;57.38;100599.41;5031605;28;20401;-76
2022/06/29 06:33:05;;;;;;;8.88;4.95;;;;;;;27.37;57.09;100598.13;5031896;28;20053;-76
2022/06/29 06:35:33;;;;;;;11.98;5.30;;;;;;;27.33;57.43;100605.81;5032924;28;20045;-77
2022/06/29 06:38:01;;;;;;;12.23;4.75;;;;;;;27.29;57.14;100611.81;5032801;28;20045;-77
2022/06/29 06:43:15;;;;;;;14.02;5.63;;;;;;;27.23;56.30;100599.00;5033566;28;20045;-77
2022/06/29 06:45:42;;;;;;;11.13;4.57;;;;;;;27.21;56.88;100603.75;5032180;28;20054;-77
2022/06/29 06:48:09;;;;;;;9.75;4.63;;;;;;;27.19;55.90;100605.84;5033097;28;20068;-77
2022/06/29 06:50:37;;;;;;;14.52;5.68;;;;;;;27.15;56.09;100607.25;5031061;28;20044;-77
2022/06/29 06:53:04;;;;;;;12.20;5.53;;;;;;;27.09;55.88;100609.63;5032852;28;20050;-77
2022/06/29 06:55:32;;;;;;;11.45;5.35;;;;;;;27.04;56.06;100608.53;5033250;28;20049;-77
2022/06/29 06:58:01;;;;;;;12.65;4.90;;;;;;;27.02;56.21;100611.44;5032659;28;20049;-77
2022/06/29 07:00:29;;;;;;;12.60;4.70;;;;;;;26.99;56.49;100605.53;5033129;28;20366;-78
2022/06/29 07:02:57;;;;;;;8.40;4.40;;;;;;;26.98;56.94;100614.69;5031715;28;20045;-79
2022/06/29 07:05:25;;;;;;;11.60;4.28;;;;;;;26.95;56.42;100613.22;5032384;28;20473;-77
2022/06/29 07:07:52;;;;;;;10.13;5.18;;;;;;;26.89;56.91;100619.38;5032608;28;20053;-76
2022/06/29 07:10:20;;;;;;;17.45;6.72;;;;;;;26.85;57.15;100613.47;5032658;28;20152;-78
2022/06/29 07:12:47;;;;;;;10.73;4.53;;;;;;;26.85;56.98;100615.34;5032925;28;20049;-79
2022/06/29 07:15:22;;;;;;;9.60;4.45;;;;;;;26.86;56.83;100622.50;5033190;28;20056;-76
2022/06/29 07:17:49;;;;;;;9.40;4.80;;;;;;;26.83;57.13;100615.56;5031558;28;20049;-77
2022/06/29 07:20:17;;;;;;;19.88;5.53;;;;;;;26.85;56.84;100604.50;5033222;28;20045;-77
2022/06/29 07:22:44;;;;;;;8.23;4.70;;;;;;;26.86;56.61;100611.63;5037260;28;20045;-77
2022/06/29 07:25:12;;;;;;;9.85;4.90;;;;;;;26.86;56.74;100620.63;5052423;28;20483;-76
2022/06/29 07:27:39;;;;;;;12.93;5.32;;;;;;;26.86;56.68;100608.91;5052697;28;20045;-76
2022/06/29 07:30:07;;;;;;;12.98;5.13;;;;;;;26.86;56.16;100606.22;5052428;28;20056;-76
2022/06/29 07:32:35;;;;;;;12.35;4.82;;;;;;;26.85;56.66;100607.22;5053727;28;20045;-76
2022/06/29 07:35:02;;;;;;;13.25;5.10;;;;;;;26.84;56.54;100602.81;5055941;28;20049;-77
2022/06/29 07:37:30;;;;;;;13.82;6.38;;;;;;;26.83;56.52;100612.84;5055796;28;20373;-77
2022/06/29 07:39:57;;;;;;;9.75;5.50;;;;;;;26.83;56.60;100612.84;5055014;28;20049;-76
2022/06/29 07:42:41;;;;;;;13.00;4.53;;;;;;;26.83;56.60;100612.00;5055720;28;20119;-76
2022/06/29 07:45:09;;;;;;;11.43;5.18;;;;;;;26.83;56.41;100612.84;5054558;28;20049;-77
2022/06/29 07:47:36;;;;;;;9.13;4.50;;;;;;;26.83;56.39;100601.97;5054647;28;20044;-75
2022/06/29 07:50:04;;;;;;;10.30;4.68;;;;;;;26.84;56.35;100610.97;5055343;28;20056;-77
2022/06/29 07:52:36;;;;;;;11.95;4.50;;;;;;;26.85;56.60;100608.06;5055278;28;20051;-75
2022/06/29 07:55:04;;;;;;;10.07;4.77;;;;;;;26.87;56.20;100605.16;5054018;28;20048;-75
2022/06/29 07:57:32;;;;;;;8.93;4.18;;;;;;;26.89;56.29;100611.25;5055185;28;20056;-75
2022/06/29 07:59:59;;;;;;;9.10;4.53;;;;;;;26.90;55.81;100612.09;5055438;28;20049;-75
2022/06/29 08:02:26;;;;;;;6.82;3.33;;;;;;;26.89;54.47;100611.25;5055186;28;20480;-75
2022/06/29 08:04:54;;;;;;;8.85;3.80;;;;;;;26.90;54.12;100614.78;5054936;28;20048;-77
2022/06/29 08:07:32;;;;;;;8.90;3.75;;;;;;;26.88;53.63;100604.13;5055472;28;20052;-77
2022/06/29 08:10:00;;;;;;;9.75;3.78;;;;;;;26.88;53.81;100607.69;5055128;28;20503;-78
2022/06/29 08:12:27;;;;;;;6.80;3.35;;;;;;;26.89;53.43;100600.38;5055439;28;20041;-76
2022/06/29 08:14:55;;;;;;;6.85;3.22;;;;;;;26.90;53.42;100609.38;5056600;28;20499;-76
2022/06/29 08:17:22;;;;;;;11.48;3.85;;;;;;;26.90;53.62;100618.38;5055018;28;20052;-76
2022/06/29 08:19:53;;;;;;;10.23;3.97;;;;;;;26.91;53.94;100614.63;5055064;28;20045;-75
2022/06/29 08:22:20;;;;;;;10.48;3.90;;;;;;;26.90;53.42;100607.50;5056021;28;20056;-75
2022/06/29 08:24:47;;;;;;;7.45;3.13;;;;;;;26.92;53.46;100612.75;5055184;28;20060;-76
2022/06/29 08:27:16;;;;;;;11.13;4.00;;;;;;;26.93;53.75;100609.84;5055177;28;20048;-75
2022/06/29 08:30:04;;;;;;;7.93;3.33;;;;;;;26.93;53.71;100609.84;5054854;28;20392;-75
2022/06/29 08:32:32;;;;;;;7.60;3.75;;;;;;;26.94;53.48;100613.38;5055118;28;20037;-75
2022/06/29 08:35:00;;;;;;;10.27;3.53;;;;;;;26.95;53.61;100607.78;5054756;28;20049;-75
2022/06/29 08:37:36;;;;;;;9.50;3.78;;;;;;;26.96;53.18;100614.06;5054867;28;20045;-75
2022/06/29 08:40:06;;;;;;;6.38;3.50;;;;;;;26.96;53.07;100608.63;5053166;28;20056;-75
2022/06/29 08:42:36;;;;;;;6.30;3.50;;;;;;;26.96;53.07;100617.63;5054532;28;20041;-76
2022/06/29 08:45:05;;;;;;;8.10;3.67;;;;;;;26.96;52.67;100612.19;5054691;28;20045;-75
2022/06/29 08:47:33;;;;;;;7.38;3.35;;;;;;;26.97;52.32;100619.28;5054676;28;20045;-76
2022/06/29 08:50:08;;;;;;;10.40;3.28;;;;;;;26.98;52.23;100612.84;5053071;28;20064;-76
2022/06/29 08:52:36;;;;;;;9.70;3.95;;;;;;;26.98;51.56;100610.13;5053813;28;20389;-76
2022/06/29 08:55:07;;;;;;;10.25;3.67;;;;;;;26.98;51.93;100612.84;5053460;28;20052;-75
2022/06/29 08:57:36;;;;;;;10.15;3.70;;;;;;;26.99;51.66;100606.38;5054775;28;20049;-75
2022/06/29 09:00:07;;;;;;;12.27;4.07;;;;;;;26.98;51.50;100615.56;5052663;28;20404;-76
2022/06/29 09:02:35;;;;;;;6.28;3.05;;;;;;;27.00;51.98;100609.94;5054294;28;20476;-75
2022/06/29 09:05:03;;;;;;;11.98;3.88;;;;;;;26.99;52.02;100606.38;5054575;28;20041;-76
2022/06/29 09:07:30;;;;;;;8.55;3.58;;;;;;;27.01;51.70;100604.31;5054438;28;20053;-76
2022/06/29 09:09:59;;;;;;;7.38;4.13;;;;;;;27.03;51.83;100612.28;5052870;28;20049;-76
2022/06/29 09:12:28;;;;;;;7.50;3.40;;;;;;;27.05;52.21;100607.50;5053877;28;20041;-77
2022/06/29 09:14:56;;;;;;;9.32;3.97;;;;;;;27.06;52.08;100607.31;5054462;28;20060;-76
2022/06/29 09:17:24;;;;;;;8.90;3.67;;;;;;;27.07;52.16;100605.44;5054067;28;20496;-78
2022/06/29 09:19:56;;;;;;;8.20;4.10;;;;;;;27.08;52.00;100605.25;5054488;28;20048;-78
2022/06/29 09:22:52;;;;;;;9.25;4.00;;;;;;;27.08;51.77;100612.56;5053039;28;20052;-78
2022/06/29 09:25:23;;;;;;;11.07;4.07;;;;;;;27.09;51.33;100598.78;5053501;28;20060;-78
2022/06/29 09:27:54;;;;;;;9.57;3.70;;;;;;;27.08;51.62;100599.81;5052537;28;20412;-78
2022/06/29 09:30:27;;;;;;;10.95;4.25;;;;;;;27.09;52.00;100596.06;5054195;28;20108;-77
2022/06/29 09:33:02;;;;;;;12.80;4.03;;;;;;;27.10;51.74;100597.78;5053649;28;20048;-77
2022/06/29 09:35:30;;;;;;;10.80;4.18;;;;;;;27.10;51.60;100605.94;5053729;28;20055;-78
2022/06/29 09:38:23;;;;;;;10.52;4.03;;;;;;;27.11;51.94;100602.19;5053758;28;20049;-77
2022/06/29 09:41:10;;;;;;;10.38;4.28;;;;;;;27.11;51.66;100598.63;5052132;28;20045;-77
2022/06/29 09:43:43;;;;;;;8.18;4.03;;;;;;;27.12;51.69;100600.31;5054156;28;20041;-78
2022/06/29 09:46:11;;;;;;;;;;;;;;;27.14;52.09;100597.41;5054409;28;20060;-78
2022/06/29 09:48:40;;;;;;;9.23;3.85;;;;;;;27.15;52.35;100599.09;5054821;28;19921;-77
2022/06/29 09:54:07;;;;;;;12.93;4.47;;;;;;;27.18;52.00;100591.38;5053420;28;20480;-75
2022/06/29 09:56:44;;;;;;;10.32;4.20;;;;;;;27.18;52.20;100587.84;5053325;28;20052;-75
2022/06/29 09:59:21;;;;;;;9.70;3.97;;;;;;;27.18;52.32;100583.22;5053576;28;20571;-76
2022/06/29 10:04:35;;;;;;;10.82;4.78;;;;;;;27.21;52.02;100592.91;5053761;28;20419;-76
2022/06/29 10:07:03;;;;;;;7.10;4.13;;;;;;;27.21;53.22;100582.88;5052719;28;20049;-76
2022/06/29 10:09:32;;;;;;;7.03;3.60;;;;;;;27.23;53.91;100574.53;5052474;28;20049;-76
2022/06/29 10:15:22;;;;;;;9.23;4.55;;;;;;;27.21;56.92;100582.03;5051849;28;20053;-76
2022/06/29 10:17:52;;;;;;;7.07;3.67;;;;;;;27.20;57.49;100583.91;5052891;28;20053;-76
2022/06/29 10:20:38;;;;;;;8.07;3.85;;;;;;;27.19;57.99;100578.66;5052252;28;20049;-76
2022/06/29 10:23:05;;;;;;;7.25;3.65;;;;;;;27.18;58.21;100577.81;5054426;28;20041;-76
2022/06/29 10:25:32;;;;;;;8.07;3.50;;;;;;;27.18;58.41;100566.94;5053243;28;20053;-76
2022/06/29 10:28:19;;;;;;;6.80;4.22;;;;;;;27.18;58.78;100575.09;5052018;28;20068;-76
2022/06/29 10:30:47;;;;;;;9.30;4.07;;;;;;;27.16;59.18;100574.44;5053022;28;20076;-76
2022/06/29 10:33:31;;;;;;;8.80;4.20;;;;;;;27.16;59.28;100571.72;5051590;28;20052;-76
2022/06/29 10:36:08;;;;;;;8.48;3.78;;;;;;;27.15;58.94;100567.34;5053097;28;20353;-76
2022/06/29 10:39:03;;;;;;;12.27;5.05;;;;;;;27.16;59.65;100568.16;5053403;28;20392;-76
2022/06/29 10:44:59;;;;;;;6.07;4.40;;;;;;;27.15;60.13;100561.91;5053039;28;20048;-77
2022/06/29 10:47:26;;;;;;;8.80;4.30;;;;;;;27.14;60.49;100571.06;5051937;28;20060;-76
2022/06/29 10:50:20;;;;;;;8.20;3.78;;;;;;;27.14;60.39;100559.34;5053194;28;20502;-76
2022/06/29 10:52:52;;;;;;;8.90;4.35;;;;;;;27.15;60.43;100558.34;5053414;28;20052;-76
2022/06/29 10:55:21;;;;;;;6.80;3.80;;;;;;;27.15;60.75;100558.34;5053435;28;20384;-76
2022/06/29 10:57:49;;;;;;;6.75;3.80;;;;;;;27.14;60.73;100557.47;5053073;28;20048;-76
2022/06/29 11:00:20;;;;;;;6.38;3.78;;;;;;;27.14;60.86;100560.19;5051579;28;20048;-76
2022/06/29 11:02:48;;;;;;;5.80;3.50;;;;;;;27.15;60.81;100551.03;5053458;28;20477;-76
2022/06/29 11:05:15;;;;;;;6.55;3.25;;;;;;;27.13;60.74;100553.06;5052821;28;20048;-76
2022/06/29 11:13:31;;;;;;;7.65;3.90;;;;;;;27.14;61.70;100548.47;5057054;28;20392;-76
2022/06/29 11:16:00;;;;;;;8.05;3.90;;;;;;;27.14;61.24;100551.19;5057325;28;20052;-76
2022/06/29 11:18:31;;;;;;;4.55;3.55;;;;;;;27.15;61.83;100547.47;5055151;28;20044;-76
2022/06/29 11:21:04;;;;;;;6.22;3.60;;;;;;;27.15;61.72;100552.91;5056997;28;20045;-76
2022/06/29 11:23:34;;;;;;;7.03;3.50;;;;;;;27.14;61.46;100537.59;5055750;28;20037;-76
2022/06/29 11:26:03;;;;;;;6.88;3.75;;;;;;;27.14;61.24;100540.31;5054823;28;20060;-76
2022/06/29 11:28:33;;;;;;;7.32;3.90;;;;;;;27.13;61.49;100534.06;5055949;28;20060;-76
2022/06/29 11:31:07;;;;;;;5.93;3.47;;;;;;;27.15;61.72;100531.16;5056515;28;20048;-76
2022/06/29 11:33:39;;;;;;;5.97;3.90;;;;;;;27.15;61.36;100533.88;5056170;28;20495;-76
2022/06/29 11:36:15;;;;;;;6.90;3.60;;;;;;;27.14;61.46;100527.56;5057083;28;20388;-76
2022/06/29 11:38:47;;;;;;;6.10;3.60;;;;;;;27.15;61.76;100517.59;5055509;28;20051;-76
2022/06/29 11:41:18;;;;;;;6.75;4.38;;;;;;;27.15;62.02;100523.84;5056714;28;20052;-76
2022/06/29 11:44:04;;;;;;;6.15;3.50;;;;;;;27.16;61.78;100530.97;5056575;28;20041;-76
2022/06/29 11:46:35;;;;;;;7.90;3.50;;;;;;;27.16;61.93;100530.13;5056236;28;20056;-76
2022/06/29 11:51:58;;;;;;;6.68;4.00;;;;;;;27.16;61.75;100525.53;5056385;28;20068;-77
2022/06/29 11:54:46;;;;;;;7.22;4.03;;;;;;;27.16;60.34;100530.97;5056414;28;20041;-77
2022/06/29 11:57:17;;;;;;;9.13;3.95;;;;;;;27.16;60.16;100536.41;5054797;28;20056;-78
2022/06/29 11:59:46;;;;;;;7.70;3.83;;;;;;;27.17;59.12;100532.63;5055426;28;20053;-79
2022/06/29 12:02:17;;;;;;;8.30;4.10;;;;;;;27.18;58.73;100534.31;5055985;28;20045;-79